Time;durP1;ratioP1;P1;durP2;ratioP2;P2;SDS_P1;SDS_P2;PMS_P1;PMS_P2;Temp;Humidity;BMP_temperature;BMP_pressure;BME280_temperature;BME280_humidity;BME280_pressure;Samples;Min_cycle;Max_cycle;Signal;HPM_P1;HPM_P2
2023/12/08 00:02:00;;;;;;;13.68;8.60;;;-3.30;57.30;;;;;;6277909;22;20193;-74
2023/12/08 00:04:27;;;;;;;17.60;9.73;;;-3.30;57.60;;;;;;6278264;22;20185;-74
2023/12/08 00:06:53;;;;;;;14.80;7.70;;;-3.20;57.60;;;;;;6278377;22;20165;-74
2023/12/08 00:09:22;;;;;;;12.18;7.45;;;-3.20;57.40;;;;;;6275461;22;20204;-74
2023/12/08 00:11:49;;;;;;;13.32;7.60;;;-3.10;57.70;;;;;;6277393;22;20244;-74
2023/12/08 00:14:16;;;;;;;12.52;8.70;;;-3.10;58.00;;;;;;6276947;22;20252;-75
2023/12/08 00:16:43;;;;;;;13.45;7.93;;;-3.00;57.80;;;;;;6277034;22;20208;-74
2023/12/08 00:19:10;;;;;;;9.60;6.47;;;-2.90;56.80;;;;;;6277210;22;20601;-74
2023/12/08 00:21:37;;;;;;;11.35;6.85;;;-2.80;56.90;;;;;;6277604;22;20168;-74
2023/12/08 00:24:05;;;;;;;11.73;6.05;;;-2.80;57.20;;;;;;6277618;22;20264;-74
2023/12/08 00:26:33;;;;;;;16.77;7.90;;;-2.70;57.50;;;;;;6277641;22;20168;-75
2023/12/08 00:29:00;;;;;;;9.82;5.47;;;-2.70;58.00;;;;;;6277908;22;20162;-74
2023/12/08 00:31:28;;;;;;;10.95;7.10;;;-2.60;58.20;;;;;;6277155;22;20166;-74
2023/12/08 00:33:55;;;;;;;8.45;5.78;;;-2.60;57.80;;;;;;6277186;22;20174;-74
2023/12/08 00:36:23;;;;;;;10.63;7.63;;;-2.60;58.10;;;;;;6276854;22;20166;-74
2023/12/08 00:38:55;;;;;;;13.18;7.10;;;-2.50;58.20;;;;;;6277864;22;20546;-74
2023/12/08 00:41:22;;;;;;;11.85;6.63;;;-2.50;57.30;;;;;;6277276;22;20185;-74
2023/12/08 00:43:50;;;;;;;14.93;7.30;;;-2.50;56.80;;;;;;6277393;22;20513;-74
2023/12/08 00:46:18;;;;;;;11.35;7.63;;;-2.40;57.10;;;;;;6277733;22;20192;-74
2023/12/08 00:48:45;;;;;;;11.95;8.15;;;-2.50;56.70;;;;;;6278102;22;20162;-74
2023/12/08 00:51:13;;;;;;;13.65;7.88;;;-2.50;56.70;;;;;;6277935;22;20204;-74
2023/12/08 00:53:40;;;;;;;11.65;7.97;;;-2.40;56.80;;;;;;6278520;22;20172;-74
2023/12/08 00:56:08;;;;;;;10.27;7.88;;;-2.50;56.60;;;;;;6277945;22;20545;-74
2023/12/08 00:58:35;;;;;;;9.32;6.05;;;-2.50;56.60;;;;;;6278022;22;20540;-74
2023/12/08 01:01:03;;;;;;;14.02;6.88;;;-2.60;56.40;;;;;;6277867;22;20162;-74
2023/12/08 01:03:30;;;;;;;10.50;7.03;;;-2.60;56.60;;;;;;6277780;22;20267;-74
2023/12/08 01:05:57;;;;;;;10.82;6.57;;;-2.60;57.20;;;;;;6277854;22;20519;-74
2023/12/08 01:08:29;;;;;;;10.15;7.38;;;-2.60;57.10;;;;;;6277842;22;20193;-74
2023/12/08 01:10:56;;;;;;;10.38;5.97;;;-2.50;56.50;;;;;;6277872;22;20181;-74
2023/12/08 01:13:26;;;;;;;13.10;7.28;;;-2.50;56.90;;;;;;6277062;22;20600;-74
2023/12/08 01:15:53;;;;;;;12.63;8.00;;;-2.50;56.90;;;;;;6277183;22;20171;-74
2023/12/08 01:18:22;;;;;;;10.73;7.30;;;-2.60;56.40;;;;;;6276745;22;20166;-74
2023/12/08 01:20:49;;;;;;;12.55;7.43;;;-2.60;56.40;;;;;;6277914;22;20161;-73
2023/12/08 01:23:16;;;;;;;12.68;7.88;;;-2.70;56.90;;;;;;6277115;22;20652;-74
2023/12/08 01:25:43;;;;;;;9.20;5.95;;;-2.70;56.40;;;;;;6276931;22;20165;-72
2023/12/08 01:28:10;;;;;;;8.63;6.45;;;-2.60;55.40;;;;;;6277670;22;20536;-74
2023/12/08 01:30:38;;;;;;;11.73;7.35;;;-2.70;54.30;;;;;;6277691;22;20219;-74
2023/12/08 01:33:05;;;;;;;10.10;7.15;;;-2.80;55.00;;;;;;6277766;22;20211;-74
2023/12/08 01:35:33;;;;;;;8.20;5.45;;;-2.90;55.30;;;;;;6277239;22;20248;-74
2023/12/08 01:38:00;;;;;;;10.50;6.30;;;-2.90;55.50;;;;;;6277474;22;20230;-74
2023/12/08 01:40:27;;;;;;;8.35;6.15;;;-2.90;55.60;;;;;;6276326;22;20230;-74
2023/12/08 01:42:54;;;;;;;7.57;4.45;;;-2.90;55.80;;;;;;6277112;22;20166;-74
2023/12/08 01:45:21;;;;;;;7.05;5.50;;;-2.90;56.30;;;;;;6276797;22;20197;-75
2023/12/08 01:47:53;;;;;;;11.80;6.80;;;-2.90;56.70;;;;;;6277092;22;20244;-74
2023/12/08 01:50:22;;;;;;;10.45;5.82;;;-2.90;56.80;;;;;;6277661;22;20154;-74
2023/12/08 01:52:51;;;;;;;9.23;5.88;;;-2.90;57.30;;;;;;6277046;22;20240;-74
2023/12/08 01:55:19;;;;;;;9.90;6.60;;;-2.90;58.00;;;;;;6276976;22;20169;-74
2023/12/08 01:57:46;;;;;;;10.18;6.47;;;-2.80;58.80;;;;;;6277459;22;20169;-74
2023/12/08 02:00:15;;;;;;;10.70;6.63;;;-2.80;58.90;;;;;;6277405;22;20223;-74
2023/12/08 02:02:43;;;;;;;10.98;5.70;;;-2.80;58.80;;;;;;6277403;22;20162;-74
2023/12/08 02:05:10;;;;;;;8.23;5.45;;;-2.70;58.80;;;;;;6276965;22;20181;-74
2023/12/08 02:07:37;;;;;;;9.65;6.93;;;-2.70;58.80;;;;;;6276342;22;20223;-74
2023/12/08 02:10:07;;;;;;;17.52;7.68;;;-2.60;58.30;;;;;;6276815;22;20201;-74
2023/12/08 02:12:34;;;;;;;16.00;7.90;;;-2.60;58.20;;;;;;6274509;22;20196;-74
2023/12/08 02:15:01;;;;;;;20.33;9.68;;;-2.60;57.90;;;;;;6277282;22;20553;-74
2023/12/08 02:17:33;;;;;;;22.05;10.25;;;-2.60;57.40;;;;;;6275701;22;20239;-74
2023/12/08 02:20:03;;;;;;;17.60;10.48;;;-2.60;57.00;;;;;;6276996;22;20180;-74
2023/12/08 02:22:30;;;;;;;12.93;8.45;;;-2.70;56.80;;;;;;6277319;22;20162;-74
2023/12/08 02:24:58;;;;;;;8.25;5.45;;;-2.60;56.70;;;;;;6277096;22;20223;-74
2023/12/08 02:27:26;;;;;;;9.70;6.82;;;-2.60;55.40;;;;;;6277819;22;20260;-74
2023/12/08 02:29:53;;;;;;;8.65;6.15;;;-2.60;54.50;;;;;;6277244;22;20245;-74
2023/12/08 02:32:26;;;;;;;10.48;6.43;;;-2.70;53.20;;;;;;6274820;22;20226;-76
2023/12/08 02:34:54;;;;;;;15.15;7.35;;;-2.80;53.00;;;;;;6276854;22;20529;-74
2023/12/08 02:37:22;;;;;;;12.02;7.30;;;-2.90;53.60;;;;;;6277229;22;20261;-74
2023/12/08 02:39:49;;;;;;;14.85;7.80;;;-3.00;54.80;;;;;;6276269;22;20172;-74
2023/12/08 02:42:19;;;;;;;12.05;7.10;;;-3.00;55.60;;;;;;6276763;22;20193;-75
2023/12/08 02:44:47;;;;;;;9.65;6.97;;;-3.00;56.10;;;;;;6276822;22;20228;-74
2023/12/08 02:47:13;;;;;;;14.85;9.05;;;-3.00;56.50;;;;;;6276718;22;20165;-74
2023/12/08 02:49:42;;;;;;;11.50;7.15;;;-3.00;56.80;;;;;;6277382;22;20240;-74
2023/12/08 02:52:11;;;;;;;16.65;7.82;;;-3.10;57.40;;;;;;6277203;22;20165;-74
2023/12/08 02:54:38;;;;;;;12.60;6.97;;;-3.00;58.00;;;;;;6277305;22;20208;-74
2023/12/08 02:57:05;;;;;;;16.70;8.45;;;-3.00;57.30;;;;;;6277070;22;20193;-74
2023/12/08 02:59:34;;;;;;;13.23;7.35;;;-2.90;57.40;;;;;;6276718;22;20675;-73
2023/12/08 03:02:05;;;;;;;14.07;7.93;;;-2.80;57.30;;;;;;6277177;22;20220;-74
2023/12/08 03:04:32;;;;;;;9.52;6.07;;;-2.80;57.40;;;;;;6277595;22;20208;-74
2023/12/08 03:06:59;;;;;;;12.20;6.95;;;-2.80;57.60;;;;;;6276698;22;20166;-74
2023/12/08 03:09:26;;;;;;;13.23;6.72;;;-2.80;58.20;;;;;;6276636;22;20684;-74
2023/12/08 03:11:53;;;;;;;13.32;6.95;;;-2.70;58.90;;;;;;6275871;22;20197;-74
2023/12/08 03:14:20;;;;;;;10.30;6.05;;;-2.70;59.40;;;;;;6275834;22;20201;-75
2023/12/08 03:16:49;;;;;;;11.88;7.15;;;-2.60;59.50;;;;;;6276429;22;20197;-74
2023/12/08 03:19:16;;;;;;;13.27;6.80;;;-2.50;59.50;;;;;;6276990;22;20202;-74
2023/12/08 03:21:45;;;;;;;14.38;6.35;;;-2.40;59.30;;;;;;6276616;22;20261;-74
2023/12/08 03:24:12;;;;;;;14.50;6.70;;;-2.40;59.30;;;;;;6276986;22;20264;-74
2023/12/08 03:26:39;;;;;;;10.77;6.50;;;-2.30;59.40;;;;;;6276982;22;20511;-74
2023/12/08 03:29:06;;;;;;;7.97;5.50;;;-2.20;59.50;;;;;;6276934;22;20166;-74
2023/12/08 03:31:33;;;;;;;13.00;5.75;;;-2.20;59.70;;;;;;6276489;22;20197;-74
2023/12/08 03:34:02;;;;;;;10.50;5.90;;;-2.10;60.50;;;;;;6276578;22;20246;-74
2023/12/08 03:36:29;;;;;;;11.93;7.22;;;-2.10;61.70;;;;;;6276947;22;20197;-74
2023/12/08 03:38:56;;;;;;;12.05;6.15;;;-2.00;61.20;;;;;;6278331;22;20240;-74
2023/12/08 03:41:23;;;;;;;9.02;6.15;;;-1.90;61.70;;;;;;6278641;22;20534;-74
2023/12/08 03:43:50;;;;;;;10.90;5.35;;;-1.90;62.30;;;;;;6278406;22;20466;-74
2023/12/08 03:46:22;;;;;;;9.65;5.15;;;-1.90;63.30;;;;;;6278457;22;20245;-74
2023/12/08 03:48:49;;;;;;;9.32;5.47;;;-1.80;63.60;;;;;;6278747;22;20188;-74
2023/12/08 03:51:17;;;;;;;7.38;5.03;;;-1.80;63.60;;;;;;6278187;22;20241;-74
2023/12/08 03:53:44;;;;;;;8.52;6.25;;;-1.70;63.60;;;;;;6277697;22;20173;-75
2023/12/08 03:56:11;;;;;;;8.02;5.72;;;-1.60;63.80;;;;;;6277910;22;20235;-74
2023/12/08 03:58:38;;;;;;;7.63;5.32;;;-1.60;64.00;;;;;;6278585;22;20204;-74
2023/12/08 04:01:05;;;;;;;8.02;5.72;;;-1.50;63.80;;;;;;6278496;22;20215;-75
2023/12/08 04:03:33;;;;;;;7.78;5.80;;;-1.40;63.30;;;;;;6278531;22;20531;-74
2023/12/08 04:06:05;;;;;;;9.63;6.57;;;-1.40;62.90;;;;;;6277907;22;20185;-74
2023/12/08 04:08:33;;;;;;;12.55;7.05;;;-1.30;62.70;;;;;;6277227;22;20229;-74
2023/12/08 04:11:01;;;;;;;11.05;6.10;;;-1.30;63.20;;;;;;6275786;22;20162;-75
2023/12/08 04:13:28;;;;;;;7.90;5.70;;;-1.30;63.50;;;;;;6277851;22;20165;-74
2023/12/08 04:15:55;;;;;;;10.30;5.18;;;-1.30;64.40;;;;;;6278436;22;20536;-74
2023/12/08 04:18:22;;;;;;;11.43;6.40;;;-1.30;64.80;;;;;;6277561;22;20177;-74
2023/12/08 04:20:49;;;;;;;10.65;6.32;;;-1.30;64.90;;;;;;6278528;22;20172;-74
2023/12/08 04:23:22;;;;;;;9.82;6.38;;;-1.20;64.90;;;;;;6278299;22;20166;-74
2023/12/08 04:25:50;;;;;;;13.10;7.80;;;-1.10;65.00;;;;;;6278208;22;20561;-74
2023/12/08 04:28:17;;;;;;;8.73;5.63;;;-1.10;64.70;;;;;;6277862;22;20240;-74
2023/12/08 04:30:44;;;;;;;10.27;6.95;;;-1.00;64.30;;;;;;6277961;22;20197;-74
2023/12/08 04:33:11;;;;;;;12.75;7.25;;;-1.00;64.30;;;;;;6278267;22;20196;-75
2023/12/08 04:35:38;;;;;;;9.02;5.57;;;-0.90;64.70;;;;;;6278235;22;20248;-74
2023/12/08 04:38:05;;;;;;;9.30;6.80;;;-0.80;65.00;;;;;;6276530;22;20166;-74
2023/12/08 04:40:32;;;;;;;12.82;6.88;;;-0.80;64.90;;;;;;6277596;22;20205;-74
2023/12/08 04:43:00;;;;;;;25.27;10.90;;;-0.80;64.90;;;;;;6277796;22;20197;-74
2023/12/08 04:45:28;;;;;;;19.00;7.63;;;-0.80;64.90;;;;;;6278125;22;20266;-74
2023/12/08 04:47:55;;;;;;;10.57;6.05;;;-0.70;64.90;;;;;;6277504;22;20240;-74
2023/12/08 04:50:22;;;;;;;8.27;5.13;;;-0.70;64.90;;;;;;6277689;22;20207;-72
2023/12/08 04:52:49;;;;;;;8.27;5.47;;;-0.70;64.60;;;;;;6277919;22;20200;-74
2023/12/08 04:55:16;;;;;;;7.90;4.95;;;-0.70;64.90;;;;;;6277726;22;20646;-74
2023/12/08 04:57:43;;;;;;;11.27;7.75;;;-0.70;64.90;;;;;;6277615;22;20201;-74
2023/12/08 05:00:12;;;;;;;9.30;6.25;;;-0.60;65.10;;;;;;6276026;22;20204;-74
2023/12/08 05:02:41;;;;;;;15.68;6.75;;;-0.60;65.40;;;;;;6276652;22;20616;-74
2023/12/08 05:05:09;;;;;;;9.50;6.50;;;-0.60;65.80;;;;;;6275733;22;20193;-74
2023/12/08 05:07:36;;;;;;;11.48;7.78;;;-0.60;66.20;;;;;;6277501;22;20647;-74
2023/12/08 05:10:03;;;;;;;10.75;7.20;;;-0.50;66.50;;;;;;6277170;22;20170;-74
2023/12/08 05:12:30;;;;;;;12.75;8.00;;;-0.50;66.50;;;;;;6277739;22;20204;-74
2023/12/08 05:14:57;;;;;;;13.35;8.63;;;-0.40;66.90;;;;;;6278205;22;20188;-74
2023/12/08 05:17:25;;;;;;;13.07;7.28;;;-0.40;67.00;;;;;;6277640;22;20166;-74
2023/12/08 05:19:52;;;;;;;10.68;7.07;;;-0.30;67.10;;;;;;6277709;22;20246;-74
2023/12/08 05:22:24;;;;;;;15.35;8.65;;;-0.30;66.70;;;;;;6277798;22;20481;-74
2023/12/08 05:24:51;;;;;;;12.40;7.85;;;-0.20;66.70;;;;;;6277308;22;20177;-74
2023/12/08 05:27:18;;;;;;;13.32;8.35;;;-0.20;66.90;;;;;;6277957;22;20165;-75
2023/12/08 05:29:45;;;;;;;11.70;7.15;;;-0.20;67.10;;;;;;6277626;22;20205;-74
2023/12/08 05:32:12;;;;;;;11.57;8.00;;;-0.20;66.90;;;;;;6277598;22;20193;-74
2023/12/08 05:34:40;;;;;;;12.40;9.02;;;-0.20;67.10;;;;;;6277553;22;20204;-74
2023/12/08 05:37:07;;;;;;;10.63;7.78;;;-0.10;67.20;;;;;;6277582;22;20205;-74
2023/12/08 05:39:34;;;;;;;12.18;8.50;;;-0.10;67.50;;;;;;6277674;22;20519;-74
2023/12/08 05:42:03;;;;;;;11.40;8.13;;;-0.10;67.70;;;;;;6277566;22;20172;-74
2023/12/08 05:44:32;;;;;;;12.93;8.90;;;0.00;67.90;;;;;;6277234;22;20513;-74
2023/12/08 05:46:59;;;;;;;14.45;9.02;;;0.00;67.90;;;;;;6277159;22;20604;-74
2023/12/08 05:49:27;;;;;;;11.50;7.75;;;0.00;67.90;;;;;;6276434;22;20612;-74
2023/12/08 05:51:55;;;;;;;12.35;8.73;;;0.00;67.90;;;;;;6275655;22;20632;-74
2023/12/08 05:54:22;;;;;;;11.10;8.07;;;0.10;68.00;;;;;;6277061;22;20208;-74
2023/12/08 05:56:49;;;;;;;11.18;8.60;;;0.10;67.80;;;;;;6277097;22;20219;-76
2023/12/08 05:59:16;;;;;;;12.07;8.60;;;0.10;67.50;;;;;;6276738;22;20165;-72
2023/12/08 06:01:43;;;;;;;13.63;9.20;;;0.20;67.30;;;;;;6276329;22;20172;-72
2023/12/08 06:04:10;;;;;;;13.15;8.73;;;0.20;67.30;;;;;;6277579;22;20196;-72
2023/12/08 06:06:37;;;;;;;11.80;7.78;;;0.20;67.30;;;;;;6276948;22;20225;-72
2023/12/08 06:09:07;;;;;;;12.60;8.13;;;0.20;67.20;;;;;;6277365;22;20162;-72
2023/12/08 06:11:34;;;;;;;13.40;7.90;;;0.30;67.10;;;;;;6276863;22;20162;-74
2023/12/08 06:14:01;;;;;;;17.17;9.35;;;0.30;67.00;;;;;;6276957;22;20202;-74
2023/12/08 06:16:28;;;;;;;16.88;9.43;;;0.30;67.00;;;;;;6277015;22;20193;-74
2023/12/08 06:18:55;;;;;;;13.02;9.50;;;0.20;67.10;;;;;;6276845;22;20600;-74
2023/12/08 06:21:26;;;;;;;12.85;8.52;;;0.20;67.30;;;;;;6276826;22;20204;-74
2023/12/08 06:23:54;;;;;;;12.63;8.27;;;0.20;67.50;;;;;;6276578;22;20154;-74
2023/12/08 06:26:24;;;;;;;11.57;7.70;;;0.20;67.80;;;;;;6276892;22;20263;-74
2023/12/08 06:28:51;;;;;;;11.02;7.85;;;0.30;68.20;;;;;;6276986;22;20184;-74
2023/12/08 06:31:18;;;;;;;13.30;8.40;;;0.30;68.10;;;;;;6276523;22;20488;-74
2023/12/08 06:33:45;;;;;;;15.23;9.57;;;0.30;68.30;;;;;;6275336;22;20200;-75
2023/12/08 06:36:12;;;;;;;15.88;9.45;;;0.30;68.50;;;;;;6277074;22;20201;-74
2023/12/08 06:38:39;;;;;;;11.55;7.85;;;0.40;68.30;;;;;;6277204;22;20168;-74
2023/12/08 06:41:07;;;;;;;10.38;6.75;;;0.50;68.40;;;;;;6277105;22;20211;-74
2023/12/08 06:43:35;;;;;;;8.13;6.38;;;0.50;68.20;;;;;;6276866;22;20684;-74
2023/12/08 06:46:02;;;;;;;9.15;5.97;;;0.40;68.20;;;;;;6276586;22;20281;-74
2023/12/08 06:48:29;;;;;;;9.88;5.85;;;0.40;68.30;;;;;;6277171;22;20170;-74
2023/12/08 06:50:56;;;;;;;12.18;6.40;;;0.40;68.50;;;;;;6277157;22;20188;-72
2023/12/08 06:53:26;;;;;;;8.10;6.63;;;0.40;68.40;;;;;;6277113;22;20197;-72
2023/12/08 06:55:53;;;;;;;11.20;6.15;;;0.40;68.60;;;;;;6275868;22;20181;-72
2023/12/08 06:58:20;;;;;;;9.52;5.50;;;0.40;68.60;;;;;;6276385;22;20627;-74
2023/12/08 07:00:48;;;;;;;9.43;7.28;;;0.40;68.70;;;;;;6277113;22;20192;-74
2023/12/08 07:03:15;;;;;;;10.20;5.57;;;0.40;68.90;;;;;;6275814;22;20550;-74
2023/12/08 07:05:42;;;;;;;8.80;6.50;;;0.50;68.80;;;;;;6276502;22;20185;-74
2023/12/08 07:08:09;;;;;;;11.88;6.22;;;0.50;68.70;;;;;;6276607;22;20165;-74
2023/12/08 07:10:36;;;;;;;7.25;5.18;;;0.50;69.00;;;;;;6276429;22;20481;-75
2023/12/08 07:13:04;;;;;;;7.78;5.90;;;0.50;69.20;;;;;;6276991;22;20165;-74
2023/12/08 07:15:30;;;;;;;11.85;6.50;;;0.60;69.30;;;;;;6275952;22;20207;-76
2023/12/08 07:17:59;;;;;;;7.63;5.50;;;0.60;69.20;;;;;;6275105;22;20197;-76
2023/12/08 07:20:26;;;;;;;8.13;5.57;;;0.70;69.00;;;;;;6277720;22;20249;-74
2023/12/08 07:22:52;;;;;;;9.40;6.20;;;0.80;68.90;;;;;;6275435;22;20177;-79
2023/12/08 07:25:19;;;;;;;9.20;6.30;;;0.80;68.60;;;;;;6276478;22;20265;-74
2023/12/08 07:27:46;;;;;;;12.50;8.80;;;0.90;68.40;;;;;;6278345;22;20249;-74
2023/12/08 07:30:13;;;;;;;17.33;10.30;;;0.90;68.20;;;;;;6277787;22;20227;-74
2023/12/08 07:32:40;;;;;;;11.52;7.20;;;1.00;68.20;;;;;;6277533;22;20240;-75
2023/12/08 07:35:09;;;;;;;10.70;6.43;;;1.00;68.60;;;;;;6278031;22;20208;-75
2023/12/08 07:37:41;;;;;;;7.97;5.60;;;1.00;69.00;;;;;;6276788;22;20636;-74
2023/12/08 07:40:09;;;;;;;10.85;6.88;;;1.10;69.30;;;;;;6277975;22;20476;-74
2023/12/08 07:42:36;;;;;;;12.00;7.75;;;1.10;69.50;;;;;;6276894;22;20162;-74
2023/12/08 07:45:04;;;;;;;14.43;8.55;;;1.20;69.60;;;;;;6277895;22;20197;-74
2023/12/08 07:47:31;;;;;;;17.58;10.25;;;1.20;69.50;;;;;;6278524;22;20461;-75
2023/12/08 07:49:58;;;;;;;15.68;9.15;;;1.30;69.50;;;;;;6278340;22;20224;-74
2023/12/08 07:52:27;;;;;;;26.95;14.68;;;1.30;69.40;;;;;;6278324;22;20529;-72
2023/12/08 07:54:54;;;;;;;27.85;13.57;;;1.40;69.20;;;;;;6278339;22;20200;-72
2023/12/08 07:57:21;;;;;;;47.65;19.40;;;1.40;68.90;;;;;;6278301;22;20166;-72
2023/12/08 07:59:48;;;;;;;18.60;11.10;;;1.30;68.90;;;;;;6278314;22;20251;-72
2023/12/08 08:02:15;;;;;;;15.60;9.75;;;1.40;69.90;;;;;;6277955;22;20212;-72
2023/12/08 08:04:42;;;;;;;11.07;7.85;;;1.50;69.20;;;;;;6278276;22;20240;-72
2023/12/08 08:07:09;;;;;;;14.10;9.10;;;1.60;69.00;;;;;;6277386;22;20248;-72
2023/12/08 08:09:37;;;;;;;12.57;7.70;;;1.60;68.60;;;;;;6277795;22;20244;-72
2023/12/08 08:12:05;;;;;;;10.60;7.28;;;1.60;68.50;;;;;;6278130;22;20193;-73
2023/12/08 08:14:31;;;;;;;11.00;8.13;;;1.70;68.50;;;;;;6277795;22;20166;-72
2023/12/08 08:16:58;;;;;;;9.70;7.80;;;1.70;68.60;;;;;;6278195;22;20484;-72
2023/12/08 08:19:25;;;;;;;19.38;10.68;;;1.70;68.40;;;;;;6277750;22;20244;-72
2023/12/08 08:21:52;;;;;;;15.02;9.85;;;1.70;68.40;;;;;;6277954;22;20193;-72
2023/12/08 08:24:19;;;;;;;18.25;10.18;;;1.60;67.60;;;;;;6277920;22;20199;-72
2023/12/08 08:26:47;;;;;;;13.73;8.68;;;1.60;68.00;;;;;;6277945;22;20260;-73
2023/12/08 08:29:14;;;;;;;14.63;8.88;;;1.60;68.60;;;;;;6277491;22;20176;-72
2023/12/08 08:31:41;;;;;;;18.67;8.88;;;1.60;68.90;;;;;;6278014;22;20188;-74
2023/12/08 08:34:08;;;;;;;12.90;8.45;;;1.60;69.30;;;;;;6278000;22;20165;-74
2023/12/08 08:36:35;;;;;;;12.75;9.27;;;1.70;69.50;;;;;;6278058;22;20545;-74
2023/12/08 08:39:03;;;;;;;14.07;8.32;;;1.70;69.70;;;;;;6277866;22;20490;-74
2023/12/08 08:41:30;;;;;;;11.73;8.60;;;1.80;69.90;;;;;;6277479;22;20165;-74
2023/12/08 08:43:58;;;;;;;11.75;8.75;;;1.90;70.10;;;;;;6277286;22;20631;-74
2023/12/08 08:46:25;;;;;;;12.10;8.40;;;2.00;69.80;;;;;;6277833;22;20217;-74
2023/12/08 08:48:54;;;;;;;12.30;7.72;;;2.00;69.50;;;;;;6277259;22;20161;-74
2023/12/08 08:51:21;;;;;;;18.40;10.43;;;2.10;69.60;;;;;;6277978;22;20245;-74
2023/12/08 08:53:49;;;;;;;18.33;11.70;;;2.10;69.60;;;;;;6277835;22;20193;-74
2023/12/08 08:56:16;;;;;;;13.32;9.45;;;2.10;70.00;;;;;;6277327;22;20275;-74
2023/12/08 08:58:43;;;;;;;13.23;9.38;;;2.20;70.30;;;;;;6277587;22;20283;-74
2023/12/08 09:01:11;;;;;;;18.42;9.35;;;2.20;70.50;;;;;;6277687;22;20241;-74
2023/12/08 09:03:38;;;;;;;13.98;9.55;;;2.20;70.40;;;;;;6277663;22;20166;-75
2023/12/08 09:06:05;;;;;;;14.30;8.52;;;2.30;71.00;;;;;;6277391;22;20276;-74
2023/12/08 09:08:32;;;;;;;13.25;9.68;;;2.30;70.20;;;;;;6277308;22;20203;-74
2023/12/08 09:10:59;;;;;;;14.55;8.57;;;2.30;70.00;;;;;;6277662;22;20184;-74
2023/12/08 09:13:26;;;;;;;9.52;7.22;;;2.30;69.80;;;;;;6277375;22;20166;-73
2023/12/08 09:15:53;;;;;;;11.77;8.00;;;2.30;69.60;;;;;;6277135;22;20264;-72
2023/12/08 09:18:21;;;;;;;13.07;7.90;;;2.40;69.40;;;;;;6277541;22;20166;-72
2023/12/08 09:20:48;;;;;;;24.55;15.18;;;2.40;69.30;;;;;;6277213;22;20170;-72
2023/12/08 09:23:15;;;;;;;23.35;14.73;;;2.40;69.70;;;;;;6277656;22;20169;-72
2023/12/08 09:25:42;;;;;;;18.27;11.15;;;2.40;69.90;;;;;;6277191;22;20264;-72
2023/12/08 09:28:09;;;;;;;13.40;7.60;;;2.40;70.20;;;;;;6277047;22;20165;-74
2023/12/08 09:30:36;;;;;;;11.25;8.07;;;2.40;70.30;;;;;;6277388;22;20196;-74
2023/12/08 09:33:03;;;;;;;18.00;8.95;;;2.50;70.00;;;;;;6276983;22;20166;-74
2023/12/08 09:35:31;;;;;;;11.85;7.60;;;2.50;69.90;;;;;;6277538;22;20220;-76
2023/12/08 09:37:58;;;;;;;11.82;8.60;;;2.50;69.80;;;;;;6277059;22;20244;-74
2023/12/08 09:40:27;;;;;;;13.07;7.10;;;2.50;69.80;;;;;;6276937;22;20171;-74
2023/12/08 09:42:58;;;;;;;25.90;12.73;;;2.60;70.70;;;;;;6276908;22;20166;-74
2023/12/08 09:45:25;;;;;;;28.80;13.13;;;2.60;69.50;;;;;;6276562;22;20186;-74
2023/12/08 09:47:55;;;;;;;18.98;10.85;;;2.70;69.20;;;;;;6277376;22;20566;-74
2023/12/08 09:50:22;;;;;;;19.50;10.40;;;2.70;69.00;;;;;;6277352;22;20162;-74
2023/12/08 09:52:51;;;;;;;16.52;10.52;;;2.80;68.90;;;;;;6276836;22;20244;-74
2023/12/08 09:55:18;;;;;;;18.30;11.80;;;2.80;68.80;;;;;;6277210;22;20166;-74
2023/12/08 09:57:46;;;;;;;15.40;10.73;;;2.90;68.90;;;;;;6277389;22;20170;-74
2023/12/08 10:00:15;;;;;;;19.58;11.35;;;2.90;68.80;;;;;;6277107;22;20166;-74
2023/12/08 10:02:42;;;;;;;19.92;11.38;;;2.90;69.00;;;;;;6277160;22;20169;-74
2023/12/08 10:05:11;;;;;;;20.13;12.80;;;2.90;69.20;;;;;;6277247;22;20161;-78
2023/12/08 10:07:40;;;;;;;20.45;13.40;;;3.00;69.30;;;;;;6276449;22;20189;-72
2023/12/08 10:10:09;;;;;;;18.80;12.57;;;3.00;68.90;;;;;;6276552;22;20635;-72
2023/12/08 10:12:37;;;;;;;21.67;12.40;;;3.00;68.60;;;;;;6277235;22;20165;-72
2023/12/08 10:15:09;;;;;;;17.63;10.15;;;3.10;68.40;;;;;;6277014;22;20161;-72
2023/12/08 10:17:45;;;;;;;18.48;12.00;;;3.10;68.40;;;;;;6277023;22;20460;-72
2023/12/08 10:20:13;;;;;;;17.23;12.30;;;3.10;68.20;;;;;;6277090;22;20465;-72
2023/12/08 10:22:50;;;;;;;19.55;11.85;;;3.10;67.90;;;;;;6276549;22;20219;-72
2023/12/08 10:25:20;;;;;;;15.45;10.35;;;3.10;67.70;;;;;;6276556;22;20655;-72
2023/12/08 10:27:49;;;;;;;15.48;10.23;;;3.10;67.70;;;;;;6276886;22;20264;-72
2023/12/08 10:30:17;;;;;;;15.15;10.00;;;3.10;67.70;;;;;;6277057;22;20200;-72
2023/12/08 10:32:44;;;;;;;13.15;8.75;;;3.20;67.90;;;;;;6276592;22;20528;-72
2023/12/08 10:35:12;;;;;;;16.73;10.50;;;3.20;68.20;;;;;;6276550;22;20204;-72
2023/12/08 10:37:39;;;;;;;12.32;9.32;;;3.30;68.50;;;;;;6276543;22;20249;-72
2023/12/08 10:40:09;;;;;;;18.38;11.65;;;3.30;68.60;;;;;;6276871;22;20168;-72
2023/12/08 10:42:37;;;;;;;14.38;10.45;;;3.40;68.30;;;;;;6276936;22;20205;-72
2023/12/08 10:45:10;;;;;;;12.10;8.93;;;3.40;67.60;;;;;;6276782;22;20185;-72
2023/12/08 10:47:40;;;;;;;10.85;6.80;;;3.50;67.10;;;;;;6277952;22;20181;-72
2023/12/08 10:50:09;;;;;;;9.55;5.75;;;3.50;66.50;;;;;;6278597;22;20187;-72
2023/12/08 10:52:39;;;;;;;11.65;6.78;;;3.60;65.50;;;;;;6278569;22;20669;-72
2023/12/08 10:55:07;;;;;;;10.90;7.50;;;3.60;65.00;;;;;;6278972;22;20496;-72
2023/12/08 10:57:34;;;;;;;11.52;7.90;;;3.60;64.50;;;;;;6278895;22;20465;-73
2023/12/08 11:00:12;;;;;;;12.27;7.22;;;3.70;64.40;;;;;;6278415;22;20165;-72
2023/12/08 11:02:41;;;;;;;14.65;8.35;;;3.70;63.90;;;;;;6279225;22;20157;-72
2023/12/08 11:05:11;;;;;;;13.77;8.30;;;3.70;63.80;;;;;;6278979;22;20162;-72
2023/12/08 11:07:39;;;;;;;10.15;7.22;;;3.70;63.80;;;;;;6278774;22;20284;-72
2023/12/08 11:10:08;;;;;;;15.10;10.10;;;3.70;63.50;;;;;;6278635;22;20204;-72
2023/12/08 11:12:40;;;;;;;12.77;10.57;;;3.80;63.00;;;;;;6278767;22;20248;-72
2023/12/08 11:15:16;;;;;;;13.60;10.30;;;3.70;63.30;;;;;;6278776;22;20161;-72
2023/12/08 11:17:49;;;;;;;12.60;10.23;;;3.70;63.70;;;;;;6278372;22;20158;-72
2023/12/08 11:20:16;;;;;;;13.45;9.65;;;3.70;64.60;;;;;;6278413;22;20720;-73
2023/12/08 11:22:45;;;;;;;19.88;10.85;;;3.80;65.40;;;;;;6278217;22;20165;-72
2023/12/08 11:25:20;;;;;;;14.50;11.27;;;3.80;65.80;;;;;;6278709;22;20323;-72
2023/12/08 11:27:54;;;;;;;15.10;11.32;;;3.90;66.00;;;;;;6278237;22;20259;-72
2023/12/08 11:30:35;;;;;;;46.40;24.65;;;4.00;66.20;;;;;;6278020;22;20157;-72
2023/12/08 11:33:10;;;;;;;25.13;15.13;;;4.00;65.40;;;;;;6278224;22;20636;-72
2023/12/08 11:35:38;;;;;;;19.92;14.38;;;4.10;65.60;;;;;;6278059;22;20626;-72
2023/12/08 11:38:06;;;;;;;24.27;15.90;;;4.10;65.50;;;;;;6278148;22;20687;-72
2023/12/08 11:40:33;;;;;;;25.05;15.82;;;4.20;65.50;;;;;;6278632;22;20162;-72
2023/12/08 11:43:01;;;;;;;23.15;16.98;;;4.20;66.10;;;;;;6277194;22;20173;-72
2023/12/08 11:45:30;;;;;;;18.98;14.35;;;4.20;66.20;;;;;;6278092;22;20514;-72
2023/12/08 11:47:57;;;;;;;22.42;16.23;;;4.30;66.40;;;;;;6278334;22;20244;-72
2023/12/08 11:50:25;;;;;;;19.45;15.77;;;4.30;66.70;;;;;;6278417;22;20166;-72
2023/12/08 11:52:51;;;;;;;22.40;12.90;;;4.40;66.40;;;;;;6277853;22;20161;-72
2023/12/08 11:55:22;;;;;;;17.60;14.55;;;4.40;65.70;;;;;;6278105;22;20244;-72
2023/12/08 11:58:05;;;;;;;18.90;13.25;;;4.40;64.60;;;;;;6277634;22;20154;-72
2023/12/08 12:00:35;;;;;;;20.05;15.00;;;4.50;64.30;;;;;;6278369;22;20184;-72
2023/12/08 12:03:03;;;;;;;24.58;15.57;;;4.50;64.20;;;;;;6277914;22;20150;-72
2023/12/08 12:05:30;;;;;;;34.45;17.95;;;4.60;64.20;;;;;;6278249;22;20245;-72
2023/12/08 12:07:58;;;;;;;19.30;15.20;;;4.60;64.10;;;;;;6278111;22;20265;-72
2023/12/08 12:10:26;;;;;;;19.80;13.90;;;4.60;64.30;;;;;;6277714;22;20607;-73
2023/12/08 12:12:56;;;;;;;20.75;14.25;;;4.70;64.10;;;;;;6278210;22;20212;-72
2023/12/08 12:15:25;;;;;;;17.85;13.52;;;4.70;64.00;;;;;;6278131;22;20471;-72
2023/12/08 12:17:53;;;;;;;20.48;16.08;;;4.70;63.90;;;;;;6278301;22;20551;-72
2023/12/08 12:20:20;;;;;;;30.85;18.77;;;4.70;63.90;;;;;;6277831;22;20165;-72
2023/12/08 12:22:47;;;;;;;35.70;21.80;;;4.70;64.00;;;;;;6277708;22;20201;-72
2023/12/08 12:25:14;;;;;;;31.73;20.95;;;4.70;63.90;;;;;;6278094;22;20166;-72
2023/12/08 12:27:42;;;;;;;21.95;16.60;;;4.70;63.40;;;;;;6277510;22;20228;-72
2023/12/08 12:30:10;;;;;;;19.80;14.23;;;4.80;63.30;;;;;;6278036;22;20240;-72
2023/12/08 12:32:37;;;;;;;21.23;16.02;;;4.80;63.10;;;;;;6278017;22;20312;-72
2023/12/08 12:35:07;;;;;;;22.63;15.02;;;4.80;62.60;;;;;;6277659;22;20631;-71
2023/12/08 12:37:35;;;;;;;20.70;16.20;;;4.80;63.20;;;;;;6277576;22;20207;-72
2023/12/08 12:40:07;;;;;;;17.20;12.93;;;4.80;63.20;;;;;;6278033;22;20204;-72
2023/12/08 12:42:39;;;;;;;16.08;11.57;;;4.80;63.20;;;;;;6278031;22;20470;-72
2023/12/08 12:45:07;;;;;;;15.73;12.15;;;4.90;62.70;;;;;;6277938;22;20193;-74